createdAt,value
2017-06-12T00:00:53.383Z,22.13
2017-06-12T00:03:23.114Z,22.20
2017-06-12T00:05:52.822Z,22.18
2017-06-12T00:08:22.576Z,22.17
2017-06-12T00:10:52.296Z,22.20
2017-06-12T00:13:22.026Z,22.11
2017-06-12T00:15:51.829Z,22.09
2017-06-12T00:18:22.365Z,22.05
2017-06-12T00:20:52.094Z,22.05
2017-06-12T00:23:21.775Z,22.07
2017-06-12T00:25:51.456Z,21.97
2017-06-12T00:28:21.127Z,22.00
2017-06-12T00:30:50.802Z,21.99
2017-06-12T00:33:20.511Z,21.90
2017-06-12T00:35:50.193Z,21.92
2017-06-12T00:38:19.875Z,21.91
2017-06-12T00:40:49.591Z,21.85
2017-06-12T00:43:19.268Z,21.81
2017-06-12T00:45:48.987Z,21.85
2017-06-12T00:48:18.677Z,21.81
2017-06-12T00:50:48.397Z,21.75
2017-06-12T00:53:18.131Z,21.82
2017-06-12T00:55:47.819Z,21.83
2017-06-12T00:58:17.541Z,21.49
2017-06-12T01:00:47.209Z,21.50
2017-06-12T01:03:16.897Z,21.45
2017-06-12T01:05:46.581Z,21.61
2017-06-12T01:08:16.285Z,21.76
2017-06-12T01:10:46.065Z,21.79
2017-06-12T01:13:15.734Z,21.77
2017-06-12T01:15:45.414Z,21.83
2017-06-12T01:18:15.111Z,21.90
2017-06-12T01:20:44.801Z,21.78
2017-06-12T01:23:14.502Z,21.74
2017-06-12T01:25:44.230Z,21.82
2017-06-12T01:28:13.948Z,21.76
2017-06-12T01:30:43.600Z,21.74
2017-06-12T01:33:13.290Z,21.72
2017-06-12T01:35:43.010Z,21.86
2017-06-12T01:38:12.305Z,21.82
2017-06-12T01:40:42.089Z,21.76
2017-06-12T01:43:11.746Z,21.79
2017-06-12T01:45:41.076Z,21.81
2017-06-12T01:48:10.768Z,21.74
2017-06-12T01:50:40.438Z,21.71
2017-06-12T01:53:10.153Z,21.76
2017-06-12T01:55:40.831Z,21.71
2017-06-12T01:58:10.576Z,21.67
2017-06-12T02:00:40.258Z,21.77
2017-06-12T02:03:09.946Z,21.69
2017-06-12T02:05:39.643Z,21.80
2017-06-12T02:08:09.358Z,21.80
2017-06-12T02:10:39.097Z,21.80
2017-06-12T02:13:09.304Z,21.77
2017-06-12T02:15:39.001Z,21.81
2017-06-12T02:18:08.704Z,21.71
2017-06-12T02:20:38.489Z,21.72
2017-06-12T02:23:08.281Z,21.68
2017-06-12T02:25:39.053Z,21.65
2017-06-12T02:28:09.715Z,21.67
2017-06-12T02:30:39.405Z,21.71
2017-06-12T02:33:09.106Z,21.74
2017-06-12T02:35:38.793Z,21.60
2017-06-12T02:38:09.777Z,21.62
2017-06-12T02:40:41.795Z,21.67
2017-06-12T02:43:14.399Z,21.71
2017-06-12T02:45:46.091Z,21.69
2017-06-12T02:48:18.126Z,21.70
2017-06-12T02:50:48.958Z,21.73
2017-06-12T02:53:20.051Z,21.68
2017-06-12T02:55:51.143Z,21.65
2017-06-12T02:58:22.754Z,21.70
2017-06-12T03:00:54.097Z,21.72
2017-06-12T03:03:25.401Z,21.79
2017-06-12T03:05:57.076Z,21.82
2017-06-12T03:08:27.042Z,21.87
2017-06-12T03:10:56.693Z,21.94
2017-06-12T03:13:26.471Z,21.94
2017-06-12T03:15:56.139Z,21.94
2017-06-12T03:18:25.899Z,21.98
2017-06-12T03:20:55.582Z,22.01
2017-06-12T03:23:24.894Z,21.93
2017-06-12T03:25:54.587Z,22.00
2017-06-12T03:28:24.477Z,22.03
2017-06-12T03:30:55.054Z,22.08
2017-06-12T03:33:24.720Z,22.12
2017-06-12T03:35:54.392Z,22.18
2017-06-12T03:38:23.163Z,22.20
2017-06-12T03:40:52.847Z,22.17
2017-06-12T03:43:24.004Z,22.24
2017-06-12T03:45:53.673Z,22.22
2017-06-12T03:48:23.523Z,22.32
2017-06-12T03:50:54.625Z,22.27
2017-06-12T03:53:25.267Z,22.30
2017-06-12T03:55:55.663Z,22.40
2017-06-12T03:58:27.142Z,22.43
2017-06-12T04:00:58.121Z,22.49
2017-06-12T04:03:29.539Z,22.48
2017-06-12T04:05:59.794Z,22.48
2017-06-12T04:08:32.926Z,22.53
2017-06-12T04:11:03.174Z,22.50
2017-06-12T04:13:32.886Z,22.52
2017-06-12T04:16:05.006Z,22.49
2017-06-12T04:18:36.660Z,22.59
2017-06-12T04:21:07.414Z,22.47
2017-06-12T04:23:38.710Z,22.61
2017-06-12T04:26:09.811Z,22.59
2017-06-12T04:28:39.481Z,22.54
2017-06-12T04:31:09.466Z,22.57
2017-06-12T04:33:40.080Z,22.58
2017-06-12T04:36:10.394Z,22.48
2017-06-12T04:38:41.930Z,22.62
2017-06-12T04:41:11.579Z,22.63
2017-06-12T04:43:41.293Z,22.64
2017-06-12T04:46:10.958Z,22.59
2017-06-12T04:48:40.623Z,22.65
2017-06-12T04:51:10.683Z,22.65
2017-06-12T04:53:40.701Z,22.75
2017-06-12T04:56:10.430Z,22.75
2017-06-12T04:58:40.107Z,22.80
2017-06-12T05:01:09.831Z,22.85
2017-06-12T05:03:39.574Z,22.85
2017-06-12T05:06:09.270Z,22.83
2017-06-12T05:08:39.826Z,22.76
2017-06-12T05:11:09.760Z,22.77
2017-06-12T05:13:40.445Z,22.74
2017-06-12T05:16:10.195Z,22.69
2017-06-12T05:18:39.898Z,22.69
2017-06-12T05:21:09.609Z,22.86
2017-06-12T05:23:39.282Z,22.82
2017-06-12T05:26:09.315Z,22.75
2017-06-12T05:28:39.167Z,22.76
2017-06-12T05:31:09.488Z,22.69
2017-06-12T05:33:39.824Z,22.65
2017-06-12T05:36:09.774Z,22.68
2017-06-12T05:38:39.528Z,22.82
2017-06-12T05:41:09.621Z,22.84
2017-06-12T05:43:39.635Z,22.80
2017-06-12T05:46:09.480Z,22.83
2017-06-12T05:48:39.293Z,22.84
2017-06-12T05:51:09.123Z,22.86
2017-06-12T05:53:39.010Z,22.88
2017-06-12T05:56:08.824Z,22.92
2017-06-12T05:58:38.918Z,22.98
2017-06-12T06:01:08.805Z,22.95
2017-06-12T06:03:38.979Z,22.91
2017-06-12T06:06:08.648Z,22.87
2017-06-12T06:08:38.759Z,22.90
2017-06-12T06:11:09.015Z,22.97
2017-06-12T06:13:39.446Z,23.32
2017-06-12T06:16:09.561Z,23.35
2017-06-12T06:18:39.325Z,23.38
2017-06-12T06:21:09.297Z,23.34
2017-06-12T06:23:39.293Z,23.31
2017-06-12T06:26:09.012Z,23.34
2017-06-12T06:28:38.879Z,23.32
2017-06-12T06:31:08.915Z,23.35
2017-06-12T06:33:38.733Z,23.33
2017-06-12T06:36:08.600Z,23.37
2017-06-12T06:38:38.534Z,23.66
2017-06-12T06:41:08.791Z,23.65
2017-06-12T06:43:38.469Z,23.68
2017-06-12T06:46:08.236Z,23.50
2017-06-12T06:48:37.985Z,23.44
2017-06-12T06:51:07.918Z,23.35
2017-06-12T06:53:37.658Z,23.29
2017-06-12T06:56:07.744Z,23.29
2017-06-12T06:58:37.777Z,23.07
2017-06-12T07:01:08.402Z,23.03
2017-06-12T07:03:38.331Z,22.91
2017-06-12T07:06:08.355Z,22.86
2017-06-12T07:08:38.047Z,22.85
2017-06-12T07:11:08.858Z,22.77
2017-06-12T07:13:38.605Z,22.76
2017-06-12T07:16:08.338Z,22.78
2017-06-12T07:18:38.046Z,22.68
2017-06-12T07:21:07.728Z,22.60
2017-06-12T07:23:37.428Z,22.61
2017-06-12T07:26:07.145Z,22.59
2017-06-12T07:28:37.013Z,22.61
2017-06-12T07:31:06.734Z,22.78
2017-06-12T07:33:36.435Z,22.86
2017-06-12T07:36:06.093Z,22.88
2017-06-12T07:38:37.083Z,22.72
2017-06-12T07:41:08.066Z,22.83
2017-06-12T07:43:40.893Z,22.74
2017-06-12T07:46:12.662Z,22.70
2017-06-12T07:48:45.142Z,22.73
2017-06-12T07:51:17.122Z,22.87
2017-06-12T07:53:50.667Z,22.69
2017-06-12T07:56:22.787Z,22.83
2017-06-12T07:58:54.606Z,23.02
2017-06-12T08:01:25.895Z,23.15
2017-06-12T08:03:58.929Z,23.25
2017-06-12T08:06:31.025Z,23.25
2017-06-12T08:09:03.241Z,23.22
2017-06-12T08:11:34.688Z,23.12
2017-06-12T08:14:07.264Z,23.02
2017-06-12T08:16:40.281Z,23.04
2017-06-12T08:19:12.747Z,23.11
2017-06-12T08:21:44.994Z,23.22
2017-06-12T08:24:17.205Z,23.22
2017-06-12T08:26:48.745Z,23.40
2017-06-12T08:29:19.487Z,23.94
2017-06-12T08:31:50.179Z,24.32
2017-06-12T08:34:21.299Z,24.45
2017-06-12T08:36:51.661Z,24.50
2017-06-12T08:39:23.806Z,24.49
2017-06-12T08:41:54.379Z,24.66
2017-06-12T08:44:25.071Z,24.63
2017-06-12T08:46:56.423Z,24.54
2017-06-12T08:49:29.989Z,24.68
2017-06-12T08:52:00.014Z,24.91
2017-06-12T08:54:29.776Z,24.95
2017-06-12T08:56:59.449Z,24.87
2017-06-12T08:59:29.119Z,25.01
2017-06-12T09:01:58.814Z,25.25
2017-06-12T09:04:28.479Z,25.31
2017-06-12T09:06:58.224Z,25.31
2017-06-12T09:09:27.714Z,25.25
2017-06-12T09:11:57.499Z,25.08
2017-06-12T09:14:27.215Z,25.24
2017-06-12T09:16:56.976Z,25.23
2017-06-12T09:19:26.701Z,25.27
2017-06-12T09:21:56.376Z,25.40
2017-06-12T09:24:26.063Z,25.34
2017-06-12T09:26:55.791Z,25.39
2017-06-12T09:29:25.461Z,25.45
2017-06-12T09:31:55.184Z,25.43
2017-06-12T09:34:24.877Z,25.29
2017-06-12T09:36:54.567Z,25.30
2017-06-12T09:39:24.274Z,25.44
2017-06-12T09:41:53.958Z,25.45
2017-06-12T09:44:23.700Z,25.40
2017-06-12T09:46:53.404Z,25.47
2017-06-12T09:49:23.078Z,25.37
2017-06-12T09:51:52.783Z,25.46
2017-06-12T09:54:22.457Z,25.58
2017-06-12T09:56:52.171Z,25.64
2017-06-12T09:59:21.874Z,25.61
2017-06-12T10:01:51.552Z,25.37
2017-06-12T10:04:21.261Z,25.38
2017-06-12T10:06:50.940Z,25.45
2017-06-12T10:09:20.684Z,25.60
2017-06-12T10:11:50.369Z,25.61
2017-06-12T10:14:20.063Z,25.72
2017-06-12T10:16:50.598Z,25.68
2017-06-12T10:19:20.309Z,25.57
2017-06-12T10:21:50.030Z,25.53
2017-06-12T10:24:19.706Z,25.68
2017-06-12T10:26:49.386Z,25.75
2017-06-12T10:29:19.093Z,25.65
2017-06-12T10:31:48.799Z,25.40
2017-06-12T10:34:18.530Z,25.37
2017-06-12T10:36:48.222Z,25.39
2017-06-12T10:39:17.929Z,25.55
2017-06-12T10:41:48.151Z,25.62
2017-06-12T10:44:17.834Z,25.63
2017-06-12T10:46:47.555Z,25.75
2017-06-12T10:49:17.230Z,25.84
2017-06-12T10:51:46.911Z,25.98
2017-06-12T10:54:16.606Z,25.83
2017-06-12T10:56:46.293Z,25.79
2017-06-12T10:59:15.838Z,25.93
2017-06-12T11:01:45.557Z,25.93
2017-06-12T11:04:15.302Z,25.81
2017-06-12T11:06:44.639Z,25.97
2017-06-12T11:09:14.348Z,26.01
2017-06-12T11:11:44.099Z,25.98
2017-06-12T11:14:13.773Z,25.84
2017-06-12T11:16:43.438Z,25.96
2017-06-12T11:19:13.202Z,25.96
2017-06-12T11:21:47.606Z,25.70
2017-06-12T11:24:17.135Z,25.68
2017-06-12T11:26:46.812Z,25.80
2017-06-12T11:29:16.311Z,26.00
2017-06-12T11:31:45.830Z,26.11
2017-06-12T11:34:15.502Z,26.06
2017-06-12T11:36:45.234Z,26.14
2017-06-12T11:39:14.903Z,26.25
2017-06-12T11:41:44.606Z,26.18
2017-06-12T11:44:14.318Z,26.09
2017-06-12T11:46:43.990Z,26.14
2017-06-12T11:49:13.693Z,26.15
2017-06-12T11:51:43.371Z,26.22
2017-06-12T11:54:13.052Z,26.20
2017-06-12T11:56:42.753Z,26.09
2017-06-12T11:59:12.413Z,26.01
2017-06-12T12:01:42.122Z,25.81
2017-06-12T12:04:11.783Z,25.77
2017-06-12T12:06:41.438Z,25.65
2017-06-12T12:09:11.155Z,25.65
2017-06-12T12:11:40.827Z,25.50
2017-06-12T12:14:10.639Z,25.54
2017-06-12T12:16:40.301Z,25.73
2017-06-12T12:19:09.969Z,25.83
2017-06-12T12:21:39.738Z,25.90
2017-06-12T12:24:09.427Z,25.85
2017-06-12T12:26:39.159Z,25.98
2017-06-12T12:29:08.899Z,26.00
2017-06-12T12:31:38.568Z,25.97
2017-06-12T12:34:08.290Z,25.95
2017-06-12T12:36:37.965Z,26.04
2017-06-12T12:39:07.715Z,26.01
2017-06-12T12:41:37.404Z,25.99
2017-06-12T12:44:07.087Z,25.87
2017-06-12T12:46:36.807Z,25.90
2017-06-12T12:49:06.490Z,26.03
2017-06-12T12:51:36.210Z,26.20
2017-06-12T12:54:05.910Z,26.12
2017-06-12T12:56:36.210Z,26.23
2017-06-12T12:59:05.919Z,26.32
2017-06-12T13:01:35.606Z,26.15
2017-06-12T13:04:05.323Z,25.97
2017-06-12T13:06:35.051Z,25.80
2017-06-12T13:09:03.833Z,25.55
2017-06-12T13:11:33.527Z,25.74
2017-06-12T13:14:03.349Z,25.96
2017-06-12T13:16:33.078Z,26.11
2017-06-12T13:19:02.766Z,26.13
2017-06-12T13:21:32.486Z,26.20
2017-06-12T13:24:02.182Z,26.28
2017-06-12T13:26:31.854Z,26.43
2017-06-12T13:29:02.514Z,26.29
2017-06-12T13:31:32.192Z,26.21
2017-06-12T13:34:01.862Z,26.14
2017-06-12T13:36:31.558Z,26.22
2017-06-12T13:39:01.263Z,26.04
2017-06-12T13:41:31.056Z,26.17
2017-06-12T13:44:00.719Z,26.08
2017-06-12T13:46:30.417Z,26.08
2017-06-12T13:49:00.103Z,25.93
2017-06-12T13:51:29.781Z,25.75
2017-06-12T13:53:59.473Z,25.81
2017-06-12T13:56:29.122Z,25.70
2017-06-12T13:58:58.886Z,25.72
2017-06-12T14:01:28.625Z,25.80
2017-06-12T14:03:58.371Z,25.70
2017-06-12T14:06:28.086Z,25.84
2017-06-12T14:08:57.756Z,25.73
2017-06-12T14:11:27.506Z,25.34
2017-06-12T14:13:57.601Z,25.25
2017-06-12T14:16:27.313Z,25.18
2017-06-12T14:18:56.990Z,25.07
2017-06-12T14:21:26.672Z,25.10
2017-06-12T14:23:56.409Z,25.02
2017-06-12T14:26:26.069Z,25.07
2017-06-12T14:28:55.794Z,25.14
2017-06-12T14:31:25.463Z,25.18
2017-06-12T14:33:55.120Z,25.10
2017-06-12T14:36:24.829Z,25.17
2017-06-12T14:38:54.504Z,25.15
2017-06-12T14:41:24.235Z,25.21
2017-06-12T14:43:53.922Z,25.27
2017-06-12T14:46:23.643Z,25.24
2017-06-12T14:48:53.367Z,25.18
2017-06-12T14:51:23.034Z,25.20
2017-06-12T14:53:52.717Z,25.17
2017-06-12T14:56:22.377Z,25.30
2017-06-12T14:58:52.063Z,25.09
2017-06-12T15:01:21.743Z,25.20
2017-06-12T15:03:51.498Z,25.12
2017-06-12T15:06:21.163Z,25.20
2017-06-12T15:08:50.851Z,24.82
2017-06-12T15:11:20.581Z,24.76
2017-06-12T15:13:50.269Z,24.74
2017-06-12T15:16:19.971Z,24.86
2017-06-12T15:18:49.658Z,24.88
2017-06-12T15:21:19.401Z,24.76
2017-06-12T15:23:49.198Z,24.74
2017-06-12T15:26:18.893Z,24.83
2017-06-12T15:28:49.128Z,24.71
2017-06-12T15:31:18.804Z,24.22
2017-06-12T15:33:48.549Z,24.09
2017-06-12T15:36:18.342Z,24.08
2017-06-12T15:38:48.777Z,23.86
2017-06-12T15:41:18.470Z,23.86
2017-06-12T15:43:48.659Z,23.70
2017-06-12T15:46:20.270Z,23.63
2017-06-12T15:48:51.413Z,23.76
2017-06-12T15:51:21.971Z,23.69
2017-06-12T15:53:53.220Z,23.56
2017-06-12T15:56:25.543Z,23.66
2017-06-12T15:58:56.474Z,23.62
2017-06-12T16:01:28.199Z,23.76
2017-06-12T16:03:59.953Z,23.75
2017-06-12T16:06:34.134Z,23.90
2017-06-12T16:09:04.927Z,23.62
2017-06-12T16:11:36.961Z,23.71
2017-06-12T16:14:08.339Z,23.67
2017-06-12T16:16:40.768Z,23.77
2017-06-12T16:19:13.548Z,23.62
2017-06-12T16:21:46.163Z,23.52
2017-06-12T16:24:18.032Z,23.59
2017-06-12T16:26:49.983Z,23.56
2017-06-12T16:29:21.189Z,23.53
2017-06-12T16:31:52.646Z,23.43
2017-06-12T16:34:23.847Z,23.38
2017-06-12T16:36:54.792Z,23.33
2017-06-12T16:39:25.242Z,23.44
2017-06-12T16:41:55.914Z,23.31
2017-06-12T16:44:28.046Z,23.22
2017-06-12T16:46:59.143Z,23.13
2017-06-12T16:49:30.423Z,22.99
2017-06-12T16:52:02.598Z,23.24
2017-06-12T16:54:34.851Z,23.22
2017-06-12T16:57:06.614Z,23.06
2017-06-12T16:59:38.725Z,23.05
2017-06-12T17:02:10.257Z,22.96
2017-06-12T17:04:41.137Z,22.95
2017-06-12T17:07:12.978Z,22.92
2017-06-12T17:09:44.785Z,23.03
2017-06-12T17:12:17.328Z,22.77
2017-06-12T17:14:49.165Z,22.87
2017-06-12T17:17:21.248Z,22.90
2017-06-12T17:19:52.040Z,22.85
2017-06-12T17:22:23.591Z,22.95
2017-06-12T17:24:54.959Z,23.02
2017-06-12T17:27:24.963Z,22.93
2017-06-12T17:29:55.460Z,23.01
2017-06-12T17:32:25.637Z,22.95
2017-06-12T17:34:57.215Z,22.93
2017-06-12T17:37:28.699Z,22.83
2017-06-12T17:40:00.447Z,22.65
2017-06-12T17:42:33.088Z,22.76
2017-06-12T17:45:06.462Z,22.64
2017-06-12T17:47:39.998Z,22.69
2017-06-12T17:50:19.563Z,22.77
2017-06-12T17:52:51.374Z,22.78
2017-06-12T17:55:23.101Z,22.73
2017-06-12T17:57:54.197Z,22.66
2017-06-12T18:00:26.313Z,22.62
2017-06-12T18:02:59.266Z,22.58
2017-06-12T18:05:29.879Z,22.66
2017-06-12T18:08:01.492Z,22.65
2017-06-12T18:10:34.364Z,22.65
2017-06-12T18:13:06.651Z,22.48
2017-06-12T18:15:37.220Z,22.44
2017-06-12T18:18:08.835Z,22.42
2017-06-12T18:20:40.523Z,22.38
2017-06-12T18:23:11.632Z,22.46
2017-06-12T18:25:41.458Z,22.40
2017-06-12T18:28:11.197Z,22.22
2017-06-12T18:30:40.935Z,22.17
2017-06-12T18:33:10.982Z,22.21
2017-06-12T18:35:41.526Z,22.20
2017-06-12T18:38:11.749Z,22.06
2017-06-12T18:40:41.676Z,22.07
2017-06-12T18:43:11.594Z,21.98
2017-06-12T18:45:41.473Z,21.98
2017-06-12T18:48:18.032Z,22.02
2017-06-12T18:50:50.381Z,21.94
2017-06-12T18:53:26.940Z,21.87
2017-06-12T18:56:05.112Z,21.92
2017-06-12T18:58:41.945Z,21.76
2017-06-12T19:01:22.825Z,21.72
2017-06-12T19:04:05.704Z,21.62
2017-06-12T19:06:46.984Z,21.59
2017-06-12T19:09:25.998Z,21.53
2017-06-12T19:12:04.490Z,21.48
2017-06-12T19:14:42.892Z,21.29
2017-06-12T19:17:22.625Z,21.28
2017-06-12T19:20:00.802Z,21.30
2017-06-12T19:22:41.703Z,21.10
2017-06-12T19:25:21.837Z,21.17
2017-06-12T19:27:59.381Z,21.09
2017-06-12T19:30:37.220Z,21.04
2017-06-12T19:33:15.243Z,20.93
2017-06-12T19:35:54.731Z,20.92
2017-06-12T19:38:32.368Z,20.93
2017-06-12T19:41:09.970Z,20.82
2017-06-12T19:43:46.999Z,20.78
2017-06-12T19:46:26.907Z,20.79
2017-06-12T19:49:06.884Z,20.66
2017-06-12T19:51:48.394Z,20.52
2017-06-12T19:54:29.186Z,20.66
2017-06-12T19:57:08.229Z,20.57
2017-06-12T19:59:52.903Z,20.42
2017-06-12T20:02:28.520Z,20.46
2017-06-12T20:05:01.864Z,20.42
2017-06-12T20:07:33.154Z,20.43
2017-06-12T20:10:06.129Z,20.41
2017-06-12T20:12:39.356Z,20.40
2017-06-12T20:15:11.729Z,20.20
2017-06-12T20:17:43.037Z,20.21
2017-06-12T20:20:15.981Z,20.14
2017-06-12T20:22:47.625Z,20.18
2017-06-12T20:25:17.333Z,20.20
2017-06-12T20:27:47.121Z,20.04
2017-06-12T20:30:16.988Z,20.01
2017-06-12T20:32:46.490Z,20.01
2017-06-12T20:35:16.159Z,19.91
2017-06-12T20:37:45.858Z,19.90
2017-06-12T20:40:15.540Z,20.01
2017-06-12T20:42:45.284Z,19.97
2017-06-12T20:45:14.969Z,19.81
2017-06-12T20:47:44.682Z,19.67
2017-06-12T20:50:14.375Z,19.69
2017-06-12T20:52:44.086Z,19.64
2017-06-12T20:55:13.422Z,19.57
2017-06-12T20:57:43.126Z,19.59
2017-06-12T21:00:12.825Z,19.51
2017-06-12T21:02:42.496Z,19.56
2017-06-12T21:05:12.199Z,19.56
2017-06-12T21:07:41.917Z,19.38
2017-06-12T21:10:11.638Z,19.39
2017-06-12T21:12:41.344Z,19.30
2017-06-12T21:15:11.158Z,19.41
2017-06-12T21:17:40.829Z,19.30
2017-06-12T21:20:10.539Z,19.42
2017-06-12T21:22:40.206Z,19.34
2017-06-12T21:25:10.049Z,19.20
2017-06-12T21:27:39.738Z,19.24
2017-06-12T21:30:09.472Z,19.15
2017-06-12T21:32:39.210Z,19.18
2017-06-12T21:35:08.898Z,19.11
2017-06-12T21:37:38.792Z,18.94
2017-06-12T21:40:08.457Z,18.95
2017-06-12T21:42:38.311Z,18.97
2017-06-12T21:45:07.993Z,18.96
2017-06-12T21:47:37.705Z,18.93
2017-06-12T21:50:07.408Z,18.88
2017-06-12T21:52:37.091Z,18.77
2017-06-12T21:55:06.773Z,18.87
2017-06-12T21:57:36.453Z,18.78
2017-06-12T22:00:05.811Z,18.73
2017-06-12T22:02:35.637Z,18.66
2017-06-12T22:05:05.415Z,18.53
2017-06-12T22:07:35.917Z,18.59
2017-06-12T22:10:05.718Z,18.45
2017-06-12T22:12:35.656Z,18.50
2017-06-12T22:15:05.371Z,18.48
2017-06-12T22:17:35.155Z,18.45
2017-06-12T22:20:04.913Z,18.41
2017-06-12T22:22:34.282Z,18.31
2017-06-12T22:25:04.105Z,18.22
2017-06-12T22:27:33.805Z,18.22
2017-06-12T22:30:04.126Z,18.28
2017-06-12T22:32:33.877Z,18.24
2017-06-12T22:35:03.688Z,18.25
2017-06-12T22:37:33.426Z,18.22
2017-06-12T22:40:03.182Z,18.31
2017-06-12T22:42:32.922Z,18.22
2017-06-12T22:45:02.610Z,18.21
2017-06-12T22:47:32.349Z,18.32
2017-06-12T22:50:02.010Z,18.28
2017-06-12T22:52:31.674Z,18.23
2017-06-12T22:55:01.362Z,18.28
2017-06-12T22:57:31.037Z,18.26
2017-06-12T23:00:00.732Z,18.14
2017-06-12T23:02:30.476Z,18.34
2017-06-12T23:05:00.178Z,18.25
2017-06-12T23:07:30.792Z,18.20
2017-06-12T23:10:00.598Z,18.06
2017-06-12T23:12:30.316Z,18.11
2017-06-12T23:15:00.040Z,18.03
2017-06-12T23:17:29.725Z,18.10
2017-06-12T23:19:59.417Z,18.12
2017-06-12T23:22:28.944Z,18.04
2017-06-12T23:24:58.630Z,18.12
2017-06-12T23:27:48.940Z,18.04
2017-06-12T23:30:32.725Z,18.22
2017-06-12T23:33:02.467Z,18.15
2017-06-12T23:35:32.160Z,18.12
2017-06-12T23:38:01.866Z,18.01
2017-06-12T23:40:31.558Z,17.90
2017-06-12T23:43:01.259Z,17.84
2017-06-12T23:45:30.949Z,18.02
2017-06-12T23:48:00.675Z,17.88
2017-06-12T23:50:30.372Z,17.93
2017-06-12T23:53:00.103Z,17.94
2017-06-12T23:55:29.781Z,17.89
2017-06-12T23:57:59.497Z,17.83
